Time;durP1;ratioP1;P1;durP2;ratioP2;P2;SDS_P1;SDS_P2;PMS_P1;PMS_P2;Temp;Humidity;BMP_temperature;BMP_pressure;BME280_temperature;BME280_humidity;BME280_pressure;Samples;Min_cycle;Max_cycle;Signal;HPM_P1;HPM_P2
2022/05/04 00:02:02;;;;;;;4.30;3.00;;;;;;;7.15;100.00;96995.78;5045022;28;20444;-66
2022/05/04 00:04:28;;;;;;;10.82;3.03;;;;;;;7.26;100.00;97005.97;5046236;28;20502;-67
2022/05/04 00:06:55;;;;;;;6.35;3.15;;;;;;;6.88;100.00;96964.31;5064927;28;20048;-66
2022/05/04 00:09:22;;;;;;;8.02;2.92;;;;;;;7.16;100.00;96998.19;5065736;28;20044;-67
2022/05/04 00:11:49;;;;;;;4.25;2.63;;;;;;;7.07;100.00;96994.78;5063640;28;20057;-67
2022/05/04 00:14:17;;;;;;;6.38;2.60;;;;;;;6.75;100.00;96948.97;5063542;28;20131;-67
2022/05/04 00:16:43;;;;;;;4.50;3.33;;;;;;;7.05;100.00;96997.09;5065092;28;20072;-67
2022/05/04 00:19:10;;;;;;;7.93;3.55;;;;;;;7.01;100.00;97007.22;5063237;28;20061;-66
2022/05/04 00:21:37;;;;;;;3.95;3.08;;;;;;;7.13;100.00;97003.59;5064342;28;20526;-65
2022/05/04 00:24:03;;;;;;;3.50;2.50;;;;;;;6.92;100.00;96980.97;5065182;28;20056;-67
2022/05/04 00:26:30;;;;;;;6.82;3.28;;;;;;;5.52;100.00;96747.19;5065293;28;20497;-67
2022/05/04 00:28:57;;;;;;;10.13;5.07;;;;;;;6.66;100.00;96950.25;5064753;28;20056;-67
2022/05/04 00:31:23;;;;;;;7.05;4.13;;;;;;;7.11;100.00;96990.19;5064835;28;20071;-67
2022/05/04 00:33:50;;;;;;;24.30;7.70;;;;;;;6.68;100.00;96979.06;5063262;28;20499;-67
2022/05/04 00:36:17;;;;;;;22.33;6.93;;;;;;;6.08;100.00;96875.44;5063263;28;20056;-67
2022/05/04 00:38:43;;;;;;;8.25;4.22;;;;;;;7.08;100.00;97018.41;5064874;28;20053;-67
2022/05/04 00:41:10;;;;;;;9.77;4.65;;;;;;;7.03;100.00;97010.41;5064397;28;20056;-67
2022/05/04 00:43:37;;;;;;;8.02;5.00;;;;;;;7.07;100.00;97016.00;5064509;28;20477;-66
2022/05/04 00:46:03;;;;;;;10.65;4.03;;;;;;;7.08;100.00;97017.63;5062964;28;20069;-67
2022/05/04 00:48:30;;;;;;;5.85;3.30;;;;;;;6.93;100.00;96993.56;5064524;28;20059;-66
2022/05/04 00:50:57;;;;;;;5.53;2.90;;;;;;;7.16;100.00;97009.22;5064119;28;20056;-67
2022/05/04 00:53:24;;;;;;;4.90;3.03;;;;;;;6.99;100.00;96987.47;5064228;28;20044;-66
2022/05/04 00:55:51;;;;;;;7.22;3.33;;;;;;;7.13;100.00;96998.91;5064269;28;20060;-67
2022/05/04 01:01:06;;;;;;;5.65;3.50;;;;;;;7.25;100.00;97012.66;5064388;28;20102;-68
2022/05/04 01:03:33;;;;;;;4.13;2.67;;;;;;;7.20;100.00;97007.38;5064035;28;20052;-67
2022/05/04 01:05:59;;;;;;;3.42;2.30;;;;;;;7.24;100.00;97013.78;5062321;28;20071;-67
2022/05/04 01:08:26;;;;;;;5.07;2.92;;;;;;;7.28;100.00;97006.44;5064130;28;20048;-67
2022/05/04 01:10:53;;;;;;;7.43;2.70;;;;;;;7.36;100.00;97019.28;5063779;28;20045;-67
2022/05/04 01:13:20;;;;;;;3.35;2.60;;;;;;;6.72;100.00;96933.16;5063717;28;20056;-66
2022/05/04 01:15:49;;;;;;;4.65;3.00;;;;;;;7.36;100.00;97013.75;5063955;28;20060;-67
2022/05/04 01:18:16;;;;;;;4.22;2.83;;;;;;;7.40;100.00;97016.59;5063713;28;20117;-67
2022/05/04 01:20:43;;;;;;;7.47;2.90;;;;;;;7.13;100.00;96967.78;5062990;28;20114;-67
2022/05/04 01:23:10;;;;;;;3.45;3.03;;;;;;;7.43;100.00;97022.22;5063925;28;20052;-68
2022/05/04 01:25:36;;;;;;;2.67;2.30;;;;;;;7.39;100.00;97023.25;5063981;28;20149;-67
2022/05/04 01:28:05;;;;;;;5.20;2.95;;;;;;;7.38;100.00;97016.94;5062576;28;20048;-68
2022/05/04 01:30:32;;;;;;;4.57;2.53;;;;;;;7.32;100.00;97010.09;5063504;28;20055;-67
2022/05/04 01:32:59;;;;;;;5.60;2.55;;;;;;;6.62;100.00;96906.16;5064282;28;20057;-66
2022/05/04 01:35:27;;;;;;;2.90;2.03;;;;;;;7.23;100.00;97014.94;5064298;28;20087;-67
2022/05/04 01:37:53;;;;;;;3.38;2.13;;;;;;;7.05;100.00;97008.09;5063901;28;20075;-68
2022/05/04 01:40:21;;;;;;;4.00;2.88;;;;;;;6.75;100.00;96976.50;5063859;28;20063;-67
2022/05/04 01:42:47;;;;;;;5.38;2.78;;;;;;;6.98;100.00;97001.59;5063782;28;20404;-67
2022/05/04 01:45:14;;;;;;;4.35;3.00;;;;;;;6.87;100.00;96990.25;5064034;28;20071;-68
2022/05/04 01:47:41;;;;;;;5.18;2.65;;;;;;;6.28;100.00;96895.66;5063872;28;20048;-66
2022/05/04 01:50:08;;;;;;;4.60;3.00;;;;;;;6.90;100.00;97008.03;5062700;28;20439;-65
2022/05/04 01:52:34;;;;;;;3.63;2.38;;;;;;;6.45;100.00;96933.91;5063569;28;20541;-67
2022/05/04 01:55:01;;;;;;;4.45;2.83;;;;;;;6.90;100.00;97036.38;5064059;28;20048;-66
2022/05/04 01:57:28;;;;;;;6.25;2.60;;;;;;;6.82;100.00;97026.28;5062174;28;20143;-66
2022/05/04 01:59:55;;;;;;;3.30;2.78;;;;;;;6.60;100.00;96991.00;5063854;28;20052;-67
2022/05/04 02:02:22;;;;;;;4.60;2.92;;;;;;;6.22;100.00;96981.50;5063403;28;20057;-67
2022/05/04 02:04:50;;;;;;;4.93;3.20;;;;;;;6.50;100.00;97007.16;5064120;28;20067;-66
2022/05/04 02:07:17;;;;;;;7.13;3.63;;;;;;;6.21;100.00;96955.97;5062273;28;20130;-66
2022/05/04 02:09:45;;;;;;;5.18;3.33;;;;;;;6.58;100.00;97018.03;5062105;28;20056;-66
2022/05/04 02:12:12;;;;;;;15.32;8.48;;;;;;;6.13;100.00;96976.13;5061937;28;20057;-66
2022/05/04 02:14:39;;;;;;;9.25;5.93;;;;;;;6.38;100.00;97013.47;5061689;28;20487;-66
2022/05/04 02:17:07;;;;;;;6.25;4.35;;;;;;;6.07;100.00;97004.97;5063336;28;20094;-66
2022/05/04 02:19:34;;;;;;;7.65;4.10;;;;;;;6.15;100.00;97018.63;5050045;28;20439;-66
2022/05/04 02:22:01;;;;;;;4.97;3.85;;;;;;;6.30;100.00;97025.41;5043571;28;20443;-66
2022/05/04 02:24:27;;;;;;;6.55;4.45;;;;;;;6.25;100.00;97022.88;5047675;28;20053;-66
2022/05/04 02:26:54;;;;;;;6.25;4.00;;;;;;;6.09;100.00;97016.44;5045220;28;20060;-67
2022/05/04 02:29:21;;;;;;;6.00;3.70;;;;;;;5.39;100.00;96972.75;5047126;28;20593;-65
2022/05/04 02:31:47;;;;;;;4.55;3.80;;;;;;;5.60;100.00;97001.75;5046614;28;20053;-66
2022/05/04 02:34:14;;;;;;;4.53;2.95;;;;;;;5.05;100.00;96901.69;5047151;28;20088;-66
2022/05/04 02:39:26;;;;;;;4.68;2.85;;;;;;;5.59;100.00;97029.56;5046872;28;20532;-66
2022/05/04 02:41:53;;;;;;;5.97;3.47;;;;;;;5.17;100.00;96970.38;5046735;28;20057;-66
2022/05/04 02:44:20;;;;;;;5.10;3.25;;;;;;;5.43;100.00;97023.09;5045257;28;20053;-66
2022/05/04 02:46:48;;;;;;;5.28;3.15;;;;;;;5.27;100.00;96986.41;5047025;28;20147;-66
2022/05/04 02:49:15;;;;;;;4.20;3.00;;;;;;;5.56;100.00;97022.00;5046855;28;20049;-67
2022/05/04 02:51:42;;;;;;;7.38;3.78;;;;;;;5.41;100.00;97053.66;5045254;28;20049;-66
2022/05/04 02:54:09;;;;;;;4.53;3.40;;;;;;;5.78;100.00;97027.13;5045319;28;20061;-65
2022/05/04 02:56:36;;;;;;;5.78;4.00;;;;;;;5.22;100.00;96939.94;5046969;28;20053;-66
2022/05/04 02:59:03;;;;;;;8.43;3.88;;;;;;;5.45;100.00;96955.72;5046518;28;20053;-66
2022/05/04 03:04:16;;;;;;;6.22;4.32;;;;;;;6.04;100.00;97031.22;5046420;28;20059;-66
2022/05/04 03:06:42;;;;;;;12.77;5.65;;;;;;;5.09;100.00;96866.97;5061335;28;20049;-65
2022/05/04 03:09:10;;;;;;;8.15;4.55;;;;;;;5.83;100.00;96982.97;5066390;28;20127;-67
2022/05/04 03:11:56;;;;;;;36.50;18.05;;;;;;;6.30;100.00;97039.16;5064856;28;20052;-67
2022/05/04 03:14:25;;;;;;;11.07;7.07;;;;;;;5.58;100.00;96927.13;5066003;28;20052;-65
2022/05/04 03:16:52;;;;;;;6.53;4.47;;;;;;;5.22;100.00;96959.16;5066041;28;20442;-65
2022/05/04 03:19:22;;;;;;;4.90;3.75;;;;;;;5.63;100.00;97044.22;5066429;28;20056;-66
2022/05/04 03:21:50;;;;;;;6.57;3.97;;;;;;;5.16;100.00;96983.31;5066427;28;20063;-66
2022/05/04 03:24:16;;;;;;;7.93;4.18;;;;;;;5.57;100.00;97023.63;5065953;28;20261;-66
2022/05/04 03:26:44;;;;;;;5.60;3.80;;;;;;;3.53;100.00;96697.09;5064779;28;20473;-66
2022/05/04 03:29:11;;;;;;;6.35;3.83;;;;;;;5.05;100.00;96929.16;5066252;28;20056;-66
2022/05/04 03:31:38;;;;;;;6.28;3.88;;;;;;;5.76;100.00;97018.41;5066038;28;20060;-67
2022/05/04 03:34:05;;;;;;;4.38;3.58;;;;;;;5.96;100.00;97064.28;5063245;28;20080;-68
2022/05/04 03:36:32;;;;;;;9.07;4.10;;;;;;;5.96;100.00;97064.28;5065940;28;20585;-68
2022/05/04 03:39:00;;;;;;;8.95;4.95;;;;;;;6.14;100.00;97076.72;5065851;28;20056;-67
2022/05/04 03:41:26;;;;;;;10.25;5.78;;;;;;;6.27;100.00;97075.59;5065812;28;20431;-67
2022/05/04 03:43:53;;;;;;;8.57;5.63;;;;;;;6.43;100.00;97082.03;5065926;28;20517;-67
2022/05/04 03:46:23;;;;;;;15.10;7.93;;;;;;;6.41;100.00;97059.56;5065354;28;20586;-67
2022/05/04 03:49:01;;;;;;;17.38;9.82;;;;;;;6.59;100.00;97071.94;5063832;28;20056;-68
2022/05/04 03:51:28;;;;;;;18.85;8.52;;;;;;;6.64;100.00;97079.97;5065573;28;20170;-66
2022/05/04 03:53:54;;;;;;;12.88;7.90;;;;;;;6.79;100.00;97086.72;5063961;28;20522;-67
2022/05/04 03:56:21;;;;;;;15.30;5.32;;;;;;;6.84;100.00;97084.56;5063693;28;20130;-67
2022/05/04 03:58:48;;;;;;;10.82;6.05;;;;;;;6.85;100.00;97086.16;5065183;28;20048;-67
2022/05/04 04:01:15;;;;;;;11.23;6.00;;;;;;;4.82;100.00;96769.56;5065232;28;20071;-65
2022/05/04 04:03:42;;;;;;;11.00;6.93;;;;;;;7.20;98.11;97062.47;5065516;28;20059;-67
2022/05/04 04:06:09;;;;;;;9.85;6.32;;;;;;;7.39;96.63;97094.91;5065124;28;20113;-67
2022/05/04 04:08:35;;;;;;;15.05;4.60;;;;;;;7.51;98.28;97095.66;5065149;28;20436;-68
2022/05/04 04:11:03;;;;;;;6.35;4.63;;;;;;;7.12;96.31;97018.53;5063727;28;20056;-69
2022/05/04 04:13:30;;;;;;;6.45;4.20;;;;;;;7.69;96.59;97116.31;5065151;28;20056;-68
2022/05/04 04:15:57;;;;;;;8.30;5.72;;;;;;;7.50;97.38;97036.19;5065303;28;20060;-68
2022/05/04 04:18:25;;;;;;;6.22;4.93;;;;;;;8.10;95.46;97097.72;5064875;28;20125;-68
2022/05/04 04:23:39;;;;;;;6.45;4.25;;;;;;;7.97;92.20;97043.75;5065078;28;20052;-67
2022/05/04 04:26:07;;;;;;;6.13;3.95;;;;;;;7.25;93.05;96924.50;5064605;28;20052;-69
2022/05/04 04:28:35;;;;;;;10.50;5.18;;;;;;;8.25;94.39;97088.72;5064457;28;20408;-69
2022/05/04 04:31:02;;;;;;;11.18;6.15;;;;;;;7.57;93.49;97003.31;5063244;28;20057;-68
2022/05/04 04:33:29;;;;;;;8.30;5.55;;;;;;;8.64;91.12;97096.03;5064848;28;20555;-70
2022/05/04 04:35:58;;;;;;;9.18;6.07;;;;;;;8.33;90.75;97044.38;5065107;28;20167;-68
2022/05/04 04:38:25;;;;;;;13.90;7.32;;;;;;;8.23;90.04;97013.75;5064028;28;20044;-68
2022/05/04 04:40:53;;;;;;;16.40;7.45;;;;;;;8.80;91.62;97094.06;5063918;28;20060;-67
2022/05/04 04:43:19;;;;;;;12.95;7.38;;;;;;;8.59;91.76;97038.31;5062732;28;20067;-68
2022/05/04 04:45:47;;;;;;;14.82;6.78;;;;;;;9.22;90.47;97089.53;5063817;28;20463;-67
2022/05/04 04:48:16;;;;;;;11.82;6.05;;;;;;;9.38;90.38;97090.31;5062922;28;20063;-69
2022/05/04 04:50:47;;;;;;;6.80;5.03;;;;;;;9.48;86.56;97086.97;5063367;28;20048;-69
2022/05/04 04:53:15;;;;;;;9.63;4.60;;;;;;;9.23;88.71;97091.16;5063578;28;20088;-72
2022/05/04 04:55:43;;;;;;;9.60;4.82;;;;;;;9.10;90.48;97086.91;5063289;28;20048;-68
2022/05/04 04:58:10;;;;;;;6.43;4.47;;;;;;;9.30;89.47;97091.31;5064401;28;20590;-67
2022/05/04 05:00:37;;;;;;;6.32;4.63;;;;;;;9.18;88.95;97044.47;5064359;28;20056;-69
2022/05/04 05:03:04;;;;;;;7.38;5.35;;;;;;;9.28;88.33;97043.88;5063188;28;20055;-68
2022/05/04 05:05:31;;;;;;;21.00;15.88;;;;;;;9.80;88.95;97093.19;5064084;28;20056;-68
2022/05/04 05:07:58;;;;;;;11.48;7.47;;;;;;;7.90;89.39;96752.09;5064884;28;20049;-69
2022/05/04 05:10:24;;;;;;;6.93;4.65;;;;;;;10.04;88.97;97056.91;5064490;28;20082;-68
2022/05/04 05:12:51;;;;;;;8.90;6.90;;;;;;;10.47;88.15;97085.03;5063822;28;20056;-68
2022/05/04 05:18:04;;;;;;;14.20;11.00;;;;;;;9.92;84.00;96985.94;5064182;28;20151;-68
2022/05/04 05:20:31;;;;;;;10.15;8.55;;;;;;;10.60;84.49;97086.47;5063984;28;20084;-69
2022/05/04 05:22:59;;;;;;;10.35;7.75;;;;;;;10.63;82.81;97104.31;5062623;28;20058;-68
2022/05/04 05:25:26;;;;;;;6.05;4.60;;;;;;;9.19;83.43;96957.63;5063809;28;20048;-67
2022/05/04 05:27:55;;;;;;;6.47;5.35;;;;;;;10.17;86.23;97097.94;5061995;28;20048;-68
2022/05/04 05:30:22;;;;;;;7.30;4.45;;;;;;;9.96;87.50;97100.22;5062287;28;20060;-68
2022/05/04 05:32:49;;;;;;;5.95;4.30;;;;;;;10.34;85.90;97108.53;5063190;28;20056;-67
2022/05/04 05:35:15;;;;;;;4.65;4.15;;;;;;;10.39;85.13;97050.09;5063625;28;20060;-66
2022/05/04 05:37:42;;;;;;;9.48;5.50;;;;;;;9.99;85.53;96947.31;5063739;28;20048;-67
2022/05/04 05:40:15;;;;;;;;;;;;;;;10.78;84.53;97072.13;5062240;28;20056;-67
2022/05/04 05:42:42;;;;;;;13.85;8.80;;;;;;;10.41;84.72;97017.28;5063643;28;19940;-67
2022/05/04 05:45:09;;;;;;;21.75;12.18;;;;;;;11.03;83.18;97073.31;5043233;28;20428;-68
2022/05/04 05:47:36;;;;;;;15.60;10.52;;;;;;;10.72;82.69;97012.66;5046906;28;20060;-64
2022/05/04 05:50:03;;;;;;;8.88;7.05;;;;;;;11.06;81.29;97078.91;5052669;28;20055;-68
2022/05/04 05:52:31;;;;;;;7.72;5.80;;;;;;;11.37;79.48;97083.31;5048750;28;20064;-63
2022/05/04 05:54:58;;;;;;;9.73;6.40;;;;;;;11.36;76.96;97040.94;5043636;28;20057;-62
2022/05/04 05:57:25;;;;;;;12.45;8.05;;;;;;;8.82;81.01;96799.03;5048408;28;20087;-68
2022/05/04 05:59:58;;;;;;;10.82;6.80;;;;;;;10.38;80.20;96970.16;5049935;28;20101;-64
2022/05/04 06:02:33;;;;;;;12.15;6.60;;;;;;;12.02;77.96;97049.34;5047549;28;20057;-62
2022/05/04 06:05:00;;;;;;;8.25;5.03;;;;;;;12.70;74.62;97098.84;5045236;28;20110;-67
2022/05/04 06:07:27;;;;;;;7.88;5.95;;;;;;;13.18;71.43;97089.34;5049611;28;20044;-64
2022/05/04 06:09:54;;;;;;;10.38;7.57;;;;;;;13.53;70.37;97089.59;5049258;28;20049;-65
2022/05/04 06:12:21;;;;;;;7.70;6.28;;;;;;;13.04;69.02;97032.84;5057353;28;20272;-72
2022/05/04 06:14:48;;;;;;;6.07;5.47;;;;;;;13.64;69.42;97090.47;5050577;28;20501;-65
2022/05/04 06:17:15;;;;;;;8.00;5.70;;;;;;;14.06;68.93;97089.09;5050752;28;20843;-60
2022/05/04 06:19:42;;;;;;;6.80;5.53;;;;;;;14.28;66.88;97062.91;5056146;28;20068;-69
2022/05/04 06:22:09;;;;;;;9.43;6.85;;;;;;;14.57;66.66;97076.56;5053461;28;20158;-63
2022/05/04 06:24:36;;;;;;;8.00;6.43;;;;;;;14.83;66.07;97061.41;5061227;28;20507;-65
2022/05/04 06:27:03;;;;;;;7.70;5.97;;;;;;;14.85;66.38;97084.13;5055238;28;20048;-62
2022/05/04 06:35:06;;;;;;;8.95;6.13;;;;;;;15.05;65.43;97090.91;5006806;28;20055;-62
2022/05/04 06:37:33;;;;;;;6.57;5.72;;;;;;;15.09;66.15;97086.16;5010217;28;20158;-61
2022/05/04 06:40:00;;;;;;;7.72;5.63;;;;;;;15.55;65.11;97075.78;5005465;28;20107;-68
2022/05/04 06:42:26;;;;;;;8.93;5.82;;;;;;;15.82;63.32;97056.56;5004336;28;20684;-61
2022/05/04 06:45:00;;;;;;;6.60;5.90;;;;;;;16.15;60.20;97076.41;5007246;28;20064;-62
2022/05/04 06:47:26;;;;;;;9.65;6.38;;;;;;;16.23;61.31;97077.94;5044657;28;20048;-60
2022/05/04 06:49:53;;;;;;;6.10;5.50;;;;;;;16.36;59.60;97076.28;5052386;28;20053;-67
2022/05/04 06:52:24;;;;;;;6.85;5.10;;;;;;;16.08;61.42;97070.81;5053805;28;20083;-62
2022/05/04 06:54:52;;;;;;;5.07;3.97;;;;;;;16.15;60.22;97068.00;5053739;28;20060;-62
2022/05/04 06:57:19;;;;;;;4.90;4.40;;;;;;;15.96;62.89;97057.31;5049554;28;20048;-71
2022/05/04 06:59:46;;;;;;;5.60;4.80;;;;;;;16.18;61.65;97067.19;5050233;28;20136;-63
2022/05/04 07:02:14;;;;;;;4.22;3.83;;;;;;;16.33;61.97;97065.91;5045922;28;20071;-68
2022/05/04 07:04:41;;;;;;;5.28;4.18;;;;;;;16.53;62.61;97072.59;5053452;28;20056;-61
2022/05/04 07:07:08;;;;;;;4.85;4.25;;;;;;;14.74;62.24;96768.25;5049079;28;20075;-63
2022/05/04 07:09:35;;;;;;;4.28;3.88;;;;;;;16.26;62.36;97015.66;5050203;28;20062;-63
2022/05/04 07:12:03;;;;;;;4.38;4.07;;;;;;;16.24;62.43;97071.16;5052513;28;20053;-63
2022/05/04 07:14:29;;;;;;;6.18;4.00;;;;;;;14.72;62.23;96782.59;5051811;28;20219;-63
2022/05/04 07:16:56;;;;;;;5.53;4.10;;;;;;;16.56;60.41;97045.84;5051517;28;20060;-59
2022/05/04 07:19:23;;;;;;;6.40;3.97;;;;;;;16.51;60.37;97021.09;5052432;28;20438;-64
2022/05/04 07:21:50;;;;;;;4.43;4.10;;;;;;;16.97;60.60;97054.34;5052765;28;20041;-60
2022/05/04 07:24:17;;;;;;;18.77;5.60;;;;;;;17.36;60.07;97066.78;5053617;28;20083;-63
2022/05/04 07:26:43;;;;;;;4.07;3.72;;;;;;;17.79;56.73;97056.00;5054420;28;20049;-66
2022/05/04 07:29:10;;;;;;;5.88;3.95;;;;;;;17.98;55.68;97058.97;5051524;28;20036;-57
2022/05/04 07:31:44;;;;;;;7.63;4.88;;;;;;;18.19;56.40;97052.31;5060269;28;20055;-60
2022/05/04 07:34:14;;;;;;;6.20;4.93;;;;;;;17.71;56.72;96954.41;5054576;28;20061;-61
2022/05/04 07:36:41;;;;;;;5.95;4.35;;;;;;;17.99;57.91;97043.75;5055441;28;20087;-62
2022/05/04 07:39:08;;;;;;;5.53;4.85;;;;;;;17.94;58.15;97049.03;5049910;28;20110;-59
2022/05/04 07:44:20;;;;;;;5.53;5.03;;;;;;;17.38;58.03;97057.97;5053881;28;20432;-62
2022/05/04 07:46:48;;;;;;;4.78;4.38;;;;;;;17.14;59.30;97059.78;5055234;28;20495;-62
2022/05/04 07:49:15;;;;;;;5.20;4.68;;;;;;;17.02;60.64;97051.91;5054518;28;20044;-65
2022/05/04 07:51:42;;;;;;;5.95;4.00;;;;;;;17.30;60.15;97053.66;5046597;28;20611;-63
2022/05/04 07:54:09;;;;;;;4.55;3.75;;;;;;;17.30;55.61;97020.06;5048421;28;20162;-63
2022/05/04 07:56:36;;;;;;;6.28;3.97;;;;;;;17.65;55.95;97000.13;5004517;28;20052;-68
2022/05/04 07:59:03;;;;;;;4.50;3.83;;;;;;;18.22;55.24;97057.09;5007106;28;20048;-61
2022/05/04 08:04:18;;;;;;;6.05;4.88;;;;;;;18.54;54.17;97068.69;5004918;28;20044;-66
2022/05/04 08:06:45;;;;;;;4.50;4.10;;;;;;;18.95;53.37;97055.25;5003121;28;20072;-62
2022/05/04 08:09:12;;;;;;;8.45;5.72;;;;;;;18.54;52.57;97001.34;5005916;28;20048;-62
2022/05/04 08:11:40;;;;;;;5.10;4.50;;;;;;;18.79;51.02;96982.16;5004359;28;20350;-69
2022/05/04 08:14:08;;;;;;;4.55;4.15;;;;;;;19.62;48.49;97059.00;5004741;28;20063;-66
2022/05/04 08:16:35;;;;;;;4.65;3.85;;;;;;;18.64;47.56;96916.22;5008074;28;20144;-65
2022/05/04 08:19:03;;;;;;;4.43;4.05;;;;;;;19.50;46.05;96990.97;5012517;28;21089;-61
2022/05/04 08:21:31;;;;;;;4.32;3.92;;;;;;;20.24;44.50;97061.81;4979154;28;20053;-59
2022/05/04 08:23:58;;;;;;;4.47;4.10;;;;;;;20.36;42.40;97058.34;4997630;28;20064;-60
2022/05/04 08:26:39;;;;;;;3.72;3.42;;;;;;;20.10;43.11;97005.81;4998103;28;20057;-64
2022/05/04 08:29:06;;;;;;;4.38;3.97;;;;;;;18.87;42.91;96777.91;4998367;28;20079;-59
2022/05/04 08:31:36;;;;;;;4.57;3.97;;;;;;;20.90;42.85;97006.03;4998312;28;20496;-61
2022/05/04 08:34:03;;;;;;;4.47;4.18;;;;;;;21.00;41.50;96985.31;4998826;28;20056;-60
2022/05/04 08:36:31;;;;;;;5.60;4.25;;;;;;;20.31;41.35;96960.38;4998385;28;20554;-58
2022/05/04 08:38:58;;;;;;;4.13;3.83;;;;;;;21.02;40.88;97056.09;4996206;28;20045;-65
2022/05/04 08:41:26;;;;;;;4.32;4.03;;;;;;;20.40;40.85;97014.03;4997510;28;20073;-58
2022/05/04 08:43:55;;;;;;;5.07;4.10;;;;;;;19.96;41.82;96986.44;5010043;28;20056;-66
2022/05/04 08:46:23;;;;;;;4.07;3.47;;;;;;;17.41;44.42;96625.91;5019507;28;20510;-60
2022/05/04 08:48:52;;;;;;;4.25;3.92;;;;;;;20.20;44.62;97032.97;5017891;28;20801;-64
2022/05/04 08:51:20;;;;;;;7.53;4.38;;;;;;;20.33;43.04;97005.75;5017310;28;20072;-67
2022/05/04 08:53:49;;;;;;;4.40;3.90;;;;;;;20.12;43.02;97037.13;5017267;28;20602;-66
2022/05/04 08:56:16;;;;;;;5.38;3.83;;;;;;;20.66;41.83;97044.03;5019537;28;20079;-66
2022/05/04 08:58:43;;;;;;;4.57;4.20;;;;;;;19.20;43.30;97055.69;5017702;28;20142;-65
2022/05/04 09:01:10;;;;;;;3.83;3.60;;;;;;;18.65;45.22;97060.91;5014980;28;20133;-61
2022/05/04 09:03:38;;;;;;;6.45;4.47;;;;;;;17.92;46.72;97071.06;5017284;28;20430;-60
2022/05/04 09:06:05;;;;;;;6.65;4.20;;;;;;;19.11;44.79;96996.44;5019363;28;20049;-60
2022/05/04 09:08:58;;;;;;;4.95;4.22;;;;;;;19.93;44.74;97033.09;5017337;28;20053;-63
2022/05/04 09:11:26;;;;;;;5.28;3.45;;;;;;;20.51;42.74;97034.31;5019605;28;20424;-60
2022/05/04 09:13:53;;;;;;;6.82;5.20;;;;;;;18.90;40.91;96794.69;5017564;28;20141;-59
2022/05/04 09:16:32;;;;;;;4.15;3.85;;;;;;;19.90;39.34;97036.75;5018834;28;20052;-63
2022/05/04 09:19:08;;;;;;;4.18;3.88;;;;;;;17.95;39.30;96722.69;5017336;28;21016;-60
2022/05/04 09:21:35;;;;;;;4.45;4.05;;;;;;;20.31;39.33;97000.56;5010850;28;20051;-63
2022/05/04 09:24:04;;;;;;;4.57;4.18;;;;;;;20.40;38.81;97020.47;5047566;28;20914;-64
2022/05/04 09:26:32;;;;;;;4.55;3.85;;;;;;;20.40;38.48;97025.28;5054307;28;20526;-67
2022/05/04 09:29:01;;;;;;;6.55;4.03;;;;;;;21.30;38.50;97038.47;5052892;28;20447;-64
2022/05/04 09:31:32;;;;;;;4.18;3.88;;;;;;;21.77;37.79;97044.53;5053389;28;20894;-60
2022/05/04 09:34:02;;;;;;;5.35;4.40;;;;;;;21.84;37.19;97027.41;5048506;28;20079;-64
2022/05/04 09:36:37;;;;;;;5.20;4.80;;;;;;;21.61;38.82;96955.09;5050961;28;20502;-66
2022/05/04 09:45:16;;;;;;;4.07;3.53;;;;;;;20.20;38.85;97027.34;5049503;28;20519;-59
2022/05/04 09:47:47;;;;;;;4.20;3.80;;;;;;;20.66;38.87;97038.41;5043657;28;20464;-61
2022/05/04 09:50:16;;;;;;;4.15;3.72;;;;;;;20.29;38.76;96974.09;5057037;28;20052;-69
2022/05/04 09:52:43;;;;;;;4.38;4.07;;;;;;;20.88;37.02;97022.59;5048548;28;20060;-62
2022/05/04 09:55:17;;;;;;;4.03;3.72;;;;;;;19.53;37.59;96731.59;5054721;28;20048;-59
2022/05/04 09:57:45;;;;;;;5.10;4.70;;;;;;;21.53;36.75;96996.00;5045620;28;20149;-57
2022/05/04 10:00:13;;;;;;;5.20;4.65;;;;;;;21.85;37.14;97010.06;5052206;28;20076;-69
2022/05/04 10:02:41;;;;;;;4.43;4.10;;;;;;;20.70;37.27;97016.56;5049780;28;20053;-59
2022/05/04 10:05:09;;;;;;;4.60;4.20;;;;;;;18.44;40.11;96805.97;5073201;28;20048;-73
2022/05/04 10:07:37;;;;;;;4.28;3.97;;;;;;;18.42;39.85;96814.00;5049673;28;20416;-60
2022/05/04 10:10:07;;;;;;;4.35;4.05;;;;;;;18.62;39.06;96901.81;5054483;28;20049;-57
2022/05/04 10:12:39;;;;;;;4.95;3.92;;;;;;;19.11;41.28;97013.28;5042085;28;20118;-59
2022/05/04 10:15:17;;;;;;;4.10;3.80;;;;;;;20.24;38.86;97011.97;5056181;28;20048;-61
2022/05/04 10:18:05;;;;;;;5.03;4.00;;;;;;;20.66;39.42;96953.94;5061853;28;20063;-60
2022/05/04 10:20:37;;;;;;;4.65;4.25;;;;;;;20.94;37.16;96880.03;5059696;28;20057;-61
2022/05/04 10:23:16;;;;;;;4.90;4.20;;;;;;;21.43;36.73;96873.06;5047372;28;20053;-62
2022/05/04 10:25:44;;;;;;;4.70;4.18;;;;;;;21.84;36.09;96952.06;5045439;28;20053;-73
2022/05/04 10:28:13;;;;;;;4.47;4.18;;;;;;;22.05;36.04;96976.81;5058201;28;20048;-68
2022/05/04 10:30:59;;;;;;;4.68;4.38;;;;;;;21.43;37.16;96997.09;5061552;28;20147;-66
2022/05/04 10:33:34;;;;;;;4.00;3.70;;;;;;;19.58;37.97;96825.81;5047902;28;20491;-69
2022/05/04 10:36:28;;;;;;;4.32;4.03;;;;;;;20.79;37.89;97003.47;5043623;28;20412;-60
2022/05/04 10:38:57;;;;;;;5.28;4.88;;;;;;;21.41;37.11;96970.56;5059319;28;20044;-65
2022/05/04 10:41:38;;;;;;;5.68;5.00;;;;;;;21.80;36.50;96993.66;5052599;28;20067;-60
2022/05/04 10:44:09;;;;;;;4.53;4.18;;;;;;;21.51;36.37;97004.13;5055945;28;20515;-61
2022/05/04 10:46:41;;;;;;;4.70;4.03;;;;;;;21.27;35.95;96994.28;5048467;28;20173;-60
2022/05/04 10:49:13;;;;;;;4.63;4.32;;;;;;;21.08;36.07;96989.53;5054779;28;20491;-62
2022/05/04 10:51:42;;;;;;;4.75;4.10;;;;;;;21.61;35.34;96990.97;5054675;28;20063;-73
2022/05/04 10:54:13;;;;;;;4.53;4.22;;;;;;;20.92;36.55;96950.06;5053439;28;20063;-66
2022/05/04 10:56:40;;;;;;;5.75;4.80;;;;;;;21.72;36.89;96997.88;5052283;28;20064;-69
2022/05/04 10:59:07;;;;;;;4.82;4.38;;;;;;;22.11;36.57;96997.59;5049516;28;20421;-60
2022/05/04 11:01:38;;;;;;;5.18;4.53;;;;;;;22.29;36.62;96986.59;5053947;28;20130;-64
2022/05/04 11:04:11;;;;;;;4.75;4.45;;;;;;;22.32;36.40;96990.53;5070512;28;20131;-60
2022/05/04 11:06:44;;;;;;;5.47;5.07;;;;;;;22.55;35.95;97020.53;5048964;28;20060;-60
2022/05/04 11:09:15;;;;;;;4.90;4.40;;;;;;;22.70;35.40;96999.09;5051397;28;20427;-63
2022/05/04 11:11:45;;;;;;;5.57;4.78;;;;;;;22.13;34.62;96899.19;5055931;28;20056;-67
2022/05/04 11:14:14;;;;;;;5.15;4.75;;;;;;;22.77;35.03;96981.91;5057342;28;20048;-65
2022/05/04 11:16:42;;;;;;;5.82;4.63;;;;;;;22.29;34.94;96865.22;5050522;28;20499;-61
2022/05/04 11:19:11;;;;;;;5.22;4.82;;;;;;;21.84;35.72;96959.72;5052201;28;20061;-76
2022/05/04 11:21:38;;;;;;;4.10;3.80;;;;;;;22.36;35.82;96969.47;5054596;28;20060;-67
2022/05/04 11:24:08;;;;;;;5.25;4.75;;;;;;;22.82;34.86;96965.22;5053137;28;20040;-69
2022/05/04 11:26:37;;;;;;;5.10;4.70;;;;;;;23.07;34.62;96961.56;5048878;28;20381;-61
2022/05/04 11:29:16;;;;;;;5.10;4.70;;;;;;;20.66;35.91;96672.44;5053412;28;20071;-68
2022/05/04 11:31:45;;;;;;;4.53;4.13;;;;;;;22.94;34.49;96918.41;5053101;28;20053;-65
2022/05/04 11:34:16;;;;;;;7.78;4.75;;;;;;;22.87;34.70;96862.16;5057873;28;20048;-65
2022/05/04 11:36:45;;;;;;;5.68;4.57;;;;;;;22.87;34.11;96856.50;5054589;28;20522;-64
2022/05/04 11:39:16;;;;;;;4.55;4.20;;;;;;;23.77;33.43;96934.44;5052779;28;20139;-67
2022/05/04 11:41:47;;;;;;;5.22;4.70;;;;;;;24.22;32.54;96953.81;5051806;28;20060;-70
2022/05/04 11:44:23;;;;;;;5.35;4.97;;;;;;;24.27;32.87;96921.28;5060538;28;20056;-67
2022/05/04 11:46:51;;;;;;;4.43;4.13;;;;;;;24.55;31.98;96943.63;5051300;28;20531;-61
2022/05/04 11:49:20;;;;;;;5.65;5.00;;;;;;;23.93;32.87;96888.97;5053550;28;20052;-65
2022/05/04 11:51:47;;;;;;;4.75;4.45;;;;;;;23.95;31.86;96950.00;5046646;28;20055;-68
2022/05/04 11:54:15;;;;;;;9.38;4.57;;;;;;;23.94;31.98;96932.22;5059802;28;20064;-59
2022/05/04 11:56:42;;;;;;;4.18;3.88;;;;;;;24.42;32.05;96948.56;5053183;28;20057;-68
2022/05/04 11:59:09;;;;;;;5.00;4.70;;;;;;;24.15;32.69;96891.81;5051581;28;20048;-69
2022/05/04 12:01:37;;;;;;;5.00;4.70;;;;;;;24.76;31.16;96942.00;5064093;28;20063;-67
2022/05/04 12:04:05;;;;;;;5.22;4.72;;;;;;;25.01;31.51;96939.75;5051976;28;20049;-67
2022/05/04 12:06:34;;;;;;;4.82;4.32;;;;;;;24.60;31.65;96852.38;5054501;28;20044;-63
2022/05/04 12:09:03;;;;;;;4.45;4.20;;;;;;;24.74;31.32;96921.84;5059974;28;20438;-71
2022/05/04 12:11:31;;;;;;;4.85;4.43;;;;;;;24.27;30.55;96884.47;5052770;28;20068;-76